Time;durP1;ratioP1;P1;durP2;ratioP2;P2;SDS_P1;SDS_P2;PMS_P1;PMS_P2;Temp;Humidity;BMP_temperature;BMP_pressure;BME280_temperature;BME280_humidity;BME280_pressure;Samples;Min_cycle;Max_cycle;Signal;HPM_P1;HPM_P2
2023/09/18 00:00:49;;;;;;;25.08;22.88;;;;;;;17.98;100.00;100548.97;6187935;23;20099;-69
2023/09/18 00:03:19;;;;;;;23.45;21.33;;;;;;;17.86;100.00;100534.47;6186882;23;20350;-68
2023/09/18 00:05:48;;;;;;;24.48;22.40;;;;;;;17.97;100.00;100531.34;6188335;23;20036;-69
2023/09/18 00:08:14;;;;;;;24.52;22.02;;;;;;;17.91;100.00;100526.31;6211624;23;20078;-69
2023/09/18 00:10:40;;;;;;;23.58;21.45;;;;;;;17.91;100.00;100526.31;6162639;23;20486;-70
2023/09/18 00:13:05;;;;;;;24.13;21.92;;;;;;;17.88;100.00;100515.84;6186752;23;20095;-70
2023/09/18 00:15:31;;;;;;;24.35;22.05;;;;;;;17.88;100.00;100522.00;6162851;23;20406;-70
2023/09/18 00:17:56;;;;;;;24.08;21.80;;;;;;;17.89;100.00;100513.13;6186283;23;20036;-70
2023/09/18 00:20:26;;;;;;;23.88;21.73;;;;;;;17.89;100.00;100513.13;6187114;23;20095;-70
2023/09/18 00:22:55;;;;;;;21.85;19.75;;;;;;;17.86;100.00;100512.38;6201852;23;20077;-69
2023/09/18 00:25:42;;;;;;;23.77;20.80;;;;;;;17.87;100.00;100504.41;6269143;22;20027;-68
2023/09/18 00:28:08;;;;;;;22.90;20.50;;;;;;;17.81;100.00;100488.75;6216263;22;20131;-67
2023/09/18 00:30:34;;;;;;;22.48;20.30;;;;;;;17.88;100.00;100492.84;6207243;23;20051;-68
2023/09/18 00:32:59;;;;;;;22.58;20.70;;;;;;;17.85;100.00;100479.75;6184328;22;20118;-69
2023/09/18 00:35:25;;;;;;;22.58;20.42;;;;;;;17.93;100.00;100482.91;6212921;22;20068;-68
2023/09/18 00:37:50;;;;;;;23.20;20.88;;;;;;;17.87;100.00;100477.88;6258424;22;20050;-68
2023/09/18 00:40:16;;;;;;;23.20;21.05;;;;;;;17.75;100.00;100459.91;6190344;22;20367;-70
2023/09/18 00:45:16;;;;;;;22.58;20.48;;;;;;;17.86;100.00;100459.38;6241600;22;20028;31
2023/09/18 00:47:41;;;;;;;23.27;21.05;;;;;;;17.91;100.00;100463.56;6224310;22;20015;-69
2023/09/18 00:50:10;;;;;;;24.15;21.95;;;;;;;17.93;100.00;100458.19;6195019;22;20424;-67
2023/09/18 00:52:37;;;;;;;22.75;20.77;;;;;;;17.95;100.00;100451.03;6213515;23;20051;-68
2023/09/18 01:03:22;;;;;;;21.52;19.52;;;;;;;18.15;100.00;100429.69;6239365;22;20038;-67
2023/09/18 01:05:48;;;;;;;22.38;20.30;;;;;;;18.16;100.00;100433.22;6190564;22;20043;-67
2023/09/18 01:08:13;;;;;;;21.75;19.48;;;;;;;18.18;100.00;100418.91;6220657;22;20016;-67
2023/09/18 01:11:08;;;;;;;23.15;20.95;;;;;;;18.21;100.00;100409.97;6203514;23;20024;-68
2023/09/18 01:19:11;;;;;;;21.23;19.13;;;;;;;18.31;100.00;100392.63;6217373;22;19912;-67
2023/09/18 01:29:22;;;;;;;21.63;19.23;;;;;;;18.29;100.00;100378.59;6239655;22;20026;-67
2023/09/18 01:34:49;;;;;;;17.88;16.15;;;;;;;18.43;100.00;100387.63;6224571;22;21017;-67
2023/09/18 01:48:19;;;;;;;16.50;14.80;;;;;;;18.54;100.00;100393.25;6306487;22;20443;-68
2023/09/18 01:54:06;;;;;;;18.08;14.25;;;;;;;18.58;100.00;100383.34;6306936;22;20498;-68
2023/09/18 01:59:53;;;;;;;13.80;11.82;;;;;;;18.63;100.00;100374.22;6305511;22;20005;-68
2023/09/18 02:02:21;;;;;;;12.70;11.50;;;;;;;18.67;100.00;100377.53;6277327;22;20011;-68
2023/09/18 02:04:47;;;;;;;12.85;10.75;;;;;;;18.68;100.00;100373.97;6252344;22;20468;-68
2023/09/18 02:07:13;;;;;;;14.15;10.27;;;;;;;18.70;100.00;100366.75;6251729;22;20086;-68
2023/09/18 02:09:38;;;;;;;16.33;10.43;;;;;;;18.74;100.00;100372.78;6227582;22;20478;-68
2023/09/18 02:12:04;;;;;;;12.82;9.75;;;;;;;18.79;100.00;100376.03;6251633;22;20003;-69
2023/09/18 02:14:31;;;;;;;14.63;9.75;;;;;;;18.85;100.00;100365.94;6252477;22;20011;-68
2023/09/18 02:16:56;;;;;;;11.55;8.95;;;;;;;18.83;100.00;100362.53;6227097;22;20080;-69
2023/09/18 02:19:22;;;;;;;12.93;9.00;;;;;;;18.89;100.00;100358.69;6251388;22;20376;-68
2023/09/18 02:21:47;;;;;;;12.52;8.55;;;;;;;18.88;100.00;100346.38;6277860;22;20014;-69
2023/09/18 02:24:13;;;;;;;11.05;8.57;;;;;;;18.89;100.00;100342.75;6251463;22;20011;-68
2023/09/18 02:26:38;;;;;;;11.90;8.45;;;;;;;18.84;100.00;100342.13;6277540;22;20011;-68
2023/09/18 02:29:09;;;;;;;13.25;9.32;;;;;;;18.83;100.00;100343.94;6251339;22;20344;-68
2023/09/18 02:31:34;;;;;;;14.32;9.13;;;;;;;18.84;100.00;100339.47;6277025;22;20014;-68
2023/09/18 02:34:00;;;;;;;11.05;7.70;;;;;;;18.81;100.00;100340.50;6277139;22;20004;-69
2023/09/18 02:36:25;;;;;;;12.20;8.25;;;;;;;18.79;100.00;100328.25;6252159;22;20034;-68
2023/09/18 02:38:51;;;;;;;11.10;8.68;;;;;;;18.74;100.00;100325.84;6252201;22;20011;-68
2023/09/18 02:41:16;;;;;;;10.15;8.52;;;;;;;18.65;100.00;100316.59;6252103;22;20011;-68
2023/09/18 02:43:41;;;;;;;12.30;8.95;;;;;;;18.64;100.00;100308.72;6250862;22;20010;-68
2023/09/18 02:46:08;;;;;;;9.73;8.60;;;;;;;18.60;100.00;100301.84;6251822;22;20008;-68
2023/09/18 02:48:34;;;;;;;11.45;8.88;;;;;;;18.64;100.00;100298.94;6276927;22;20050;-68
2023/09/18 02:51:00;;;;;;;14.20;8.73;;;;;;;18.61;100.00;100292.97;6252355;22;20007;-69
2023/09/18 02:53:25;;;;;;;13.00;9.05;;;;;;;18.61;100.00;100288.50;6277805;22;20000;-68
2023/09/18 02:55:53;;;;;;;13.85;8.82;;;;;;;18.55;100.00;100296.81;6253607;22;20015;-68
2023/09/18 02:58:19;;;;;;;10.25;8.70;;;;;;;18.50;100.00;100274.94;6278432;22;20428;-68
2023/09/18 03:00:49;;;;;;;10.57;8.85;;;;;;;18.47;100.00;100289.22;6253844;22;20038;-67
2023/09/18 03:03:15;;;;;;;;;;;;;;;18.63;100.00;100291.94;6253428;22;20026;-67
2023/09/18 03:05:41;;;;;;;11.65;8.40;;;;;;;18.56;100.00;100289.69;6279030;22;19960;-68
2023/09/18 03:08:08;;;;;;;15.35;8.80;;;;;;;18.58;100.00;100288.66;6253090;22;20371;-68
2023/09/18 03:10:39;;;;;;;14.63;9.30;;;;;;;18.72;100.00;100279.97;6279246;22;20023;-68
2023/09/18 03:13:06;;;;;;;10.95;8.38;;;;;;;18.77;100.00;100274.41;6278299;22;20398;-68
2023/09/18 03:15:32;;;;;;;9.88;7.55;;;;;;;18.82;100.00;100275.88;6279476;22;20033;-67
2023/09/18 03:17:58;;;;;;;12.00;7.82;;;;;;;18.82;100.00;100275.88;6252714;22;20007;-69
2023/09/18 03:20:24;;;;;;;11.70;7.70;;;;;;;18.87;100.00;100255.25;6253687;22;20003;-68
2023/09/18 03:22:54;;;;;;;13.45;7.32;;;;;;;18.85;100.00;100241.19;6279019;22;20026;-68
2023/09/18 03:25:20;;;;;;;12.55;7.28;;;;;;;18.87;100.00;100268.50;6253356;22;20018;-68
2023/09/18 03:27:48;;;;;;;10.45;8.00;;;;;;;18.95;100.00;100270.75;6227562;22;20411;-68
2023/09/18 03:30:15;;;;;;;13.35;7.22;;;;;;;18.97;100.00;100268.88;6252726;22;20391;-69
2023/09/18 03:32:42;;;;;;;10.75;7.00;;;;;;;18.97;100.00;100265.38;6252904;22;20007;-69
2023/09/18 03:35:15;;;;;;;16.13;7.65;;;;;;;18.97;100.00;100258.25;6253709;22;20034;-68
2023/09/18 03:37:41;;;;;;;12.75;7.65;;;;;;;18.92;100.00;100273.59;6278829;22;20086;-68
2023/09/18 03:40:07;;;;;;;13.07;7.68;;;;;;;18.96;100.00;100282.22;6253444;22;20349;-68
2023/09/18 03:42:33;;;;;;;13.68;7.07;;;;;;;19.00;100.00;100265.19;6252582;22;20040;-68
2023/09/18 03:44:58;;;;;;;11.52;7.53;;;;;;;18.95;100.00;100257.50;6278810;22;20432;-68
2023/09/18 03:47:23;;;;;;;15.60;7.53;;;;;;;18.96;100.00;100261.00;6252383;22;20007;-68
2023/09/18 03:49:49;;;;;;;13.18;7.63;;;;;;;18.96;100.00;100264.50;6253622;22;20082;-68
2023/09/18 03:52:14;;;;;;;14.02;6.88;;;;;;;19.00;100.00;100262.53;6252960;22;20090;-68
2023/09/18 03:54:40;;;;;;;14.25;6.82;;;;;;;18.93;100.00;100272.63;6252797;22;20426;-68
2023/09/18 03:57:05;;;;;;;15.75;7.07;;;;;;;19.03;100.00;100267.66;6278114;22;20068;-68
2023/09/18 03:59:31;;;;;;;13.23;7.43;;;;;;;19.07;100.00;100284.28;6278646;22;20014;-68
2023/09/18 04:01:56;;;;;;;12.60;6.82;;;;;;;19.04;100.00;100274.69;6253212;22;20068;-68
2023/09/18 04:04:21;;;;;;;12.93;7.15;;;;;;;19.07;100.00;100268.38;6252208;22;20011;-68
2023/09/18 04:06:47;;;;;;;13.68;7.18;;;;;;;19.07;100.00;100260.41;6278259;22;20007;-68
2023/09/18 04:09:15;;;;;;;13.90;7.18;;;;;;;19.10;100.00;100245.13;6253023;22;20011;-68
2023/09/18 04:11:40;;;;;;;11.30;6.72;;;;;;;19.24;100.00;100243.47;6278843;22;20085;-68
2023/09/18 04:14:05;;;;;;;14.10;7.22;;;;;;;19.10;100.00;100262.88;6252483;22;20504;-68
2023/09/18 04:16:35;;;;;;;14.15;7.75;;;;;;;19.03;100.00;100268.50;6252639;22;20088;-67
2023/09/18 04:19:01;;;;;;;12.30;7.10;;;;;;;19.00;100.00;100275.81;6229107;22;20045;-68
2023/09/18 04:21:26;;;;;;;12.20;7.38;;;;;;;19.00;100.00;100276.66;6227735;22;20368;-68
2023/09/18 04:23:57;;;;;;;15.63;7.35;;;;;;;18.99;100.00;100274.09;6253083;22;20010;-68
2023/09/18 04:26:29;;;;;;;14.73;8.02;;;;;;;18.94;100.00;100279.66;6253528;22;20097;-68
2023/09/18 04:28:55;;;;;;;13.43;8.00;;;;;;;18.95;100.00;100277.84;6229071;22;20024;-68
2023/09/18 04:31:21;;;;;;;12.85;8.07;;;;;;;18.90;100.00;100262.19;6276101;22;20034;-68
2023/09/18 04:33:46;;;;;;;12.10;7.88;;;;;;;18.90;100.00;100261.34;6252682;22;20007;-68
2023/09/18 04:36:11;;;;;;;17.35;8.55;;;;;;;18.87;100.00;100251.75;6278330;22;20003;-69
2023/09/18 04:38:37;;;;;;;10.32;7.90;;;;;;;18.87;100.00;100236.66;6252867;22;20018;-68
2023/09/18 04:41:02;;;;;;;11.80;7.82;;;;;;;18.83;100.00;100228.94;6252849;22;20018;-68
2023/09/18 04:43:29;;;;;;;10.45;8.15;;;;;;;18.83;100.00;100226.28;6251888;22;20429;-68
2023/09/18 04:45:55;;;;;;;12.88;8.73;;;;;;;18.78;100.00;100229.19;6253018;22;20027;-68
2023/09/18 04:48:21;;;;;;;12.38;8.45;;;;;;;18.76;100.00;100206.31;6226845;22;20068;-68
2023/09/18 04:50:47;;;;;;;13.02;8.60;;;;;;;18.73;100.00;100203.84;6305928;22;20423;-68
2023/09/18 04:53:13;;;;;;;14.13;8.80;;;;;;;18.70;100.00;100197.78;6252227;22;20094;-67
2023/09/18 04:55:38;;;;;;;12.00;8.98;;;;;;;18.70;100.00;100200.44;6252443;22;20018;-67
2023/09/18 04:58:05;;;;;;;14.35;8.75;;;;;;;18.64;100.00;100178.69;6226810;22;20169;-67
2023/09/18 05:00:31;;;;;;;11.52;8.63;;;;;;;18.64;100.00;100181.34;6252603;22;20409;-67
2023/09/18 05:03:00;;;;;;;13.52;8.60;;;;;;;18.59;100.00;100173.66;6276807;22;20029;-68
2023/09/18 05:05:26;;;;;;;14.77;9.15;;;;;;;18.61;100.00;100176.22;6252905;22;20038;-67
2023/09/18 05:07:51;;;;;;;13.88;8.85;;;;;;;18.60;100.00;100179.78;6252545;22;20007;-67
2023/09/18 05:10:16;;;;;;;14.73;9.52;;;;;;;18.56;100.00;100175.59;6252510;22;20021;-68
2023/09/18 05:12:42;;;;;;;12.85;9.40;;;;;;;18.55;100.00;100180.06;6251933;22;20014;-67
2023/09/18 05:15:09;;;;;;;13.63;9.63;;;;;;;18.52;100.00;100175.78;6252390;22;20314;-68
2023/09/18 05:17:47;;;;;;;13.00;9.70;;;;;;;18.54;100.00;100178.34;6277396;22;20007;-69
2023/09/18 05:20:15;;;;;;;13.35;8.15;;;;;;;18.58;100.00;100176.38;6277911;22;20475;-68
2023/09/18 05:22:42;;;;;;;9.80;7.82;;;;;;;18.55;100.00;100177.41;6277862;22;20009;-68
2023/09/18 05:25:10;;;;;;;11.05;7.45;;;;;;;18.54;100.00;100186.28;6277881;22;20009;-68
2023/09/18 05:27:43;;;;;;;13.30;6.95;;;;;;;18.54;100.00;100183.66;6225157;22;20031;-68
2023/09/18 05:30:23;;;;;;;9.13;6.22;;;;;;;18.57;100.00;100180.81;6278146;22;20007;-69
2023/09/18 05:32:48;;;;;;;8.00;6.07;;;;;;;18.53;100.00;100188.09;6277590;22;20353;-67
2023/09/18 05:35:14;;;;;;;10.25;5.40;;;;;;;18.56;100.00;100194.16;6277660;22;20010;-68
2023/09/18 05:37:43;;;;;;;9.60;5.50;;;;;;;18.52;100.00;100190.84;6277905;22;20007;-67
2023/09/18 05:40:10;;;;;;;7.68;4.40;;;;;;;18.58;100.00;100205.56;6278267;22;20376;-68
2023/09/18 05:42:43;;;;;;;7.95;4.43;;;;;;;18.55;100.00;100198.63;6226618;22;20014;-67
2023/09/18 05:45:09;;;;;;;5.32;3.50;;;;;;;18.64;100.00;100208.72;6279073;22;20015;-67
2023/09/18 05:47:35;;;;;;;5.68;2.88;;;;;;;18.64;100.00;100206.06;6250445;22;20041;-68
2023/09/18 05:50:03;;;;;;;4.90;3.20;;;;;;;18.58;100.00;100190.50;6252721;22;20007;-67
2023/09/18 05:52:29;;;;;;;7.07;3.20;;;;;;;18.64;100.00;100218.50;6227369;22;20007;-68
2023/09/18 05:54:54;;;;;;;4.65;2.78;;;;;;;18.66;100.00;100228.09;6252566;22;20090;-69
2023/09/18 05:57:20;;;;;;;6.15;2.85;;;;;;;18.70;100.00;100226.97;6251481;22;20007;-69
2023/09/18 05:59:45;;;;;;;6.95;2.72;;;;;;;18.70;100.00;100223.44;6251293;22;20004;-67
2023/09/18 06:02:11;;;;;;;5.82;2.47;;;;;;;18.66;100.00;100222.78;6250862;22;20007;-68
2023/09/18 06:04:37;;;;;;;4.03;2.85;;;;;;;18.64;100.00;100232.59;6252076;22;20026;-68
2023/09/18 06:07:03;;;;;;;4.97;2.20;;;;;;;18.69;100.00;100238.53;6252167;22;20341;-67
2023/09/18 06:09:29;;;;;;;5.07;2.45;;;;;;;18.68;100.00;100220.03;6277538;22;19999;-68
2023/09/18 06:11:54;;;;;;;3.75;2.50;;;;;;;18.67;100.00;100245.69;6251413;22;20094;-68
2023/09/18 06:14:20;;;;;;;5.68;2.20;;;;;;;18.73;100.00;100257.78;6252052;22;20375;-68
2023/09/18 06:16:45;;;;;;;3.63;2.03;;;;;;;18.68;100.00;100257.19;6252376;22;20053;-67
2023/09/18 06:19:11;;;;;;;7.20;2.33;;;;;;;18.70;100.00;100260.59;6277630;22;20008;-68
2023/09/18 06:21:36;;;;;;;3.22;1.90;;;;;;;18.62;100.00;100260.16;6251591;22;20026;-68
2023/09/18 06:24:01;;;;;;;4.28;2.10;;;;;;;18.65;100.00;100252.91;6226365;22;20019;-67
2023/09/18 06:26:27;;;;;;;4.20;2.13;;;;;;;18.59;100.00;100253.25;6251887;22;20011;-67
2023/09/18 06:28:54;;;;;;;5.25;1.88;;;;;;;18.62;100.00;100253.06;6277936;22;20011;-67
2023/09/18 06:31:20;;;;;;;7.05;2.30;;;;;;;18.59;100.00;100263.84;6253820;22;20014;-68
2023/09/18 06:33:46;;;;;;;4.30;2.05;;;;;;;18.58;100.00;100258.63;6228678;22;20007;-68
2023/09/18 06:36:11;;;;;;;3.92;2.10;;;;;;;18.55;100.00;100275.56;6254585;22;20068;-68
2023/09/18 06:38:36;;;;;;;4.95;2.10;;;;;;;18.57;100.00;100264.88;6254102;22;20154;-68
2023/09/18 06:41:02;;;;;;;3.10;1.92;;;;;;;18.51;100.00;100260.75;6254496;22;20014;-68
2023/09/18 06:43:28;;;;;;;2.78;2.00;;;;;;;18.50;100.00;100264.34;6227800;22;20007;-67
2023/09/18 06:45:53;;;;;;;3.70;1.90;;;;;;;18.52;100.00;100278.41;6251898;22;20337;-68
2023/09/18 06:48:19;;;;;;;3.88;1.88;;;;;;;18.49;100.00;100278.56;6253339;22;20022;-68
2023/09/18 06:50:45;;;;;;;3.05;2.00;;;;;;;18.56;100.00;100297.66;6254276;22;20007;-67
2023/09/18 06:53:10;;;;;;;4.82;1.90;;;;;;;18.64;100.00;100293.63;6253925;22;20397;-68
2023/09/18 06:55:36;;;;;;;3.95;1.73;;;;;;;18.59;100.00;100293.03;6279349;22;20367;-68
2023/09/18 06:58:02;;;;;;;5.18;2.20;;;;;;;18.59;100.00;100290.41;6278751;22;20087;-67
2023/09/18 07:00:27;;;;;;;2.80;1.63;;;;;;;18.64;100.00;100293.63;6227539;22;20430;-68
2023/09/18 07:02:55;;;;;;;5.03;1.70;;;;;;;18.70;100.00;100281.84;6251508;22;20003;-67
2023/09/18 07:05:22;;;;;;;4.57;2.08;;;;;;;18.74;100.00;100293.16;6279913;22;20027;-67
2023/09/18 07:07:47;;;;;;;4.38;1.90;;;;;;;18.74;100.00;100304.63;6252829;22;20011;-67
2023/09/18 07:10:13;;;;;;;5.22;2.00;;;;;;;18.76;100.00;100301.88;6253709;22;20455;-68
2023/09/18 07:12:39;;;;;;;3.13;1.88;;;;;;;18.77;100.00;100292.97;6253023;22;20067;-67
2023/09/18 07:15:06;;;;;;;3.92;1.92;;;;;;;18.73;100.00;100286.97;6254001;22;20010;-67
2023/09/18 07:17:32;;;;;;;3.60;2.20;;;;;;;18.74;100.00;100293.16;6227464;22;20417;-68
2023/09/18 07:19:57;;;;;;;7.35;2.15;;;;;;;18.70;100.00;100303.94;6254093;22;20062;-67
2023/09/18 07:22:23;;;;;;;4.47;2.00;;;;;;;18.71;100.00;100304.78;6253592;22;20434;-68
2023/09/18 07:24:48;;;;;;;3.28;2.15;;;;;;;18.74;100.00;100301.13;6253232;22;20003;-67
2023/09/18 07:27:14;;;;;;;3.72;1.80;;;;;;;18.67;100.00;100301.44;6252237;22;20010;-67
2023/09/18 07:29:39;;;;;;;3.45;2.00;;;;;;;18.68;100.00;100305.81;6253346;22;20011;-68
2023/09/18 07:32:05;;;;;;;2.78;1.73;;;;;;;18.70;100.00;100311.03;6279383;22;20106;-68
2023/09/18 07:34:30;;;;;;;3.03;1.73;;;;;;;18.63;100.00;100312.28;6252206;22;20444;-68
2023/09/18 07:36:56;;;;;;;5.07;1.80;;;;;;;18.67;100.00;100320.00;6253456;22;20084;-67
2023/09/18 07:39:22;;;;;;;3.33;1.63;;;;;;;18.69;100.00;100323.44;6279210;22;20077;-67
2023/09/18 07:41:47;;;;;;;3.55;1.88;;;;;;;18.72;100.00;100321.56;6305971;22;20348;-67
2023/09/18 07:44:20;;;;;;;5.53;1.95;;;;;;;18.69;100.00;100317.25;6273022;22;20050;-67
2023/09/18 07:46:46;;;;;;;6.32;1.92;;;;;;;18.70;100.00;100319.00;6273905;22;20384;-67
2023/09/18 07:49:12;;;;;;;6.53;2.20;;;;;;;18.72;100.00;100310.94;6248054;22;20008;-67
2023/09/18 07:51:37;;;;;;;3.40;1.90;;;;;;;18.73;100.00;100315.31;6248116;22;20090;-67
2023/09/18 07:54:03;;;;;;;4.13;1.67;;;;;;;18.74;100.00;100325.00;6221979;22;20014;-67
2023/09/18 07:56:31;;;;;;;4.65;1.90;;;;;;;18.80;100.00;100329.97;6222889;22;20015;-66
2023/09/18 07:58:56;;;;;;;3.65;2.00;;;;;;;18.78;100.00;100326.56;6223405;22;20007;-66
2023/09/18 08:01:22;;;;;;;4.72;1.70;;;;;;;18.82;100.00;100322.75;6223297;22;20476;-66
2023/09/18 08:03:49;;;;;;;5.18;1.70;;;;;;;18.85;100.00;100318.16;6222481;22;20008;-66
2023/09/18 08:06:18;;;;;;;5.53;1.77;;;;;;;18.84;100.00;100315.59;6247833;22;20011;-67
2023/09/18 08:08:43;;;;;;;3.53;1.63;;;;;;;18.79;100.00;100323.81;6248556;22;20011;-67
2023/09/18 08:11:09;;;;;;;3.40;1.55;;;;;;;18.82;100.00;100323.66;6222757;22;20027;-66
2023/09/18 08:13:35;;;;;;;5.40;2.03;;;;;;;18.86;100.00;100314.59;6246381;22;20012;-66
2023/09/18 08:16:01;;;;;;;3.13;1.85;;;;;;;18.84;100.00;100318.25;6273895;22;20321;-66
2023/09/18 08:18:26;;;;;;;4.32;2.25;;;;;;;18.88;100.00;100319.84;6246733;22;20342;-66
2023/09/18 08:20:54;;;;;;;6.15;2.00;;;;;;;18.91;100.00;100322.31;6248574;22;20012;-66
2023/09/18 08:23:19;;;;;;;4.18;1.90;;;;;;;19.00;100.00;100321.78;6222307;22;20062;-67
2023/09/18 08:25:44;;;;;;;3.28;1.70;;;;;;;19.03;99.67;100318.97;6247754;22;20047;-67
2023/09/18 08:28:10;;;;;;;3.15;1.90;;;;;;;19.13;99.35;100321.97;6272563;22;20011;-66
2023/09/18 08:30:36;;;;;;;4.90;2.03;;;;;;;19.37;98.74;100325.03;6247836;22;20012;-66
2023/09/18 08:33:02;;;;;;;4.32;1.70;;;;;;;19.66;97.59;100334.97;6272765;22;20004;-66
2023/09/18 08:35:29;;;;;;;3.25;1.70;;;;;;;19.88;96.71;100350.53;6222343;22;20039;-67
2023/09/18 08:37:56;;;;;;;3.22;1.80;;;;;;;19.87;94.25;100348.84;6247963;22;20015;-66
2023/09/18 08:40:22;;;;;;;2.28;1.75;;;;;;;19.72;96.53;100353.19;6248127;22;20011;-67
2023/09/18 08:42:51;;;;;;;2.90;1.67;;;;;;;19.73;95.54;100353.09;6246823;22;20016;-66
2023/09/18 08:45:32;;;;;;;6.78;1.98;;;;;;;20.00;93.24;100348.97;6272662;22;20023;-67
2023/09/18 08:48:01;;;;;;;3.58;1.95;;;;;;;19.82;93.58;100362.38;6272283;22;20090;-67
2023/09/18 08:50:28;;;;;;;3.83;2.03;;;;;;;19.95;93.95;100367.00;6273081;22;20015;-66
2023/09/18 08:52:57;;;;;;;3.58;1.90;;;;;;;19.98;92.83;100367.66;6197146;22;20003;-67
2023/09/18 08:55:24;;;;;;;5.97;1.80;;;;;;;19.88;92.46;100351.41;6247566;22;20074;-67
2023/09/18 08:57:50;;;;;;;5.03;2.30;;;;;;;19.88;94.20;100355.84;6272112;22;20335;-66
2023/09/18 09:00:17;;;;;;;4.90;2.00;;;;;;;19.82;93.18;100361.53;6222602;22;20007;-66
2023/09/18 09:02:44;;;;;;;4.47;1.70;;;;;;;19.87;92.89;100365.66;6247071;22;20042;-66
2023/09/18 09:05:10;;;;;;;5.22;1.90;;;;;;;19.95;92.61;100369.66;6247472;22;20038;-66
2023/09/18 09:07:35;;;;;;;3.78;2.22;;;;;;;19.95;93.22;100362.53;6272695;22;20046;-67
2023/09/18 09:10:01;;;;;;;2.78;1.95;;;;;;;20.06;93.89;100365.41;6247091;22;20007;-66
2023/09/18 09:12:51;;;;;;;3.50;1.98;;;;;;;20.31;94.77;100358.63;6222101;22;20519;-66
2023/09/18 09:15:17;;;;;;;;;;;;;;;20.57;90.48;100361.50;6248018;22;20006;-67
2023/09/18 09:17:44;;;;;;;4.85;1.70;;;;;;;20.45;89.62;100359.63;6272104;22;19985;-67
2023/09/18 09:20:12;;;;;;;2.85;2.03;;;;;;;20.57;88.23;100364.16;6247246;22;20155;-68
2023/09/18 09:22:40;;;;;;;4.95;1.85;;;;;;;20.87;88.96;100364.09;6272973;22;20294;-66
2023/09/18 09:25:25;;;;;;;5.18;2.17;;;;;;;21.08;89.36;100363.72;6273063;22;20008;-67
2023/09/18 09:27:52;;;;;;;6.07;2.08;;;;;;;21.23;86.58;100369.88;6271638;22;20014;-66
2023/09/18 09:30:26;;;;;;;5.88;2.33;;;;;;;21.18;85.47;100372.00;6247573;22;20007;-67
2023/09/18 09:32:57;;;;;;;6.38;2.40;;;;;;;21.30;85.11;100381.84;6272295;22;20054;-67
2023/09/18 09:35:29;;;;;;;;;;;;;;;21.58;85.20;100388.97;6223652;22;20003;-67
2023/09/18 09:38:01;;;;;;;7.47;2.97;;;;;;;21.32;85.51;100393.28;6271676;22;19961;-67
2023/09/18 09:40:28;;;;;;;5.22;2.85;;;;;;;21.12;85.16;100391.88;6247041;22;20027;-67
2023/09/18 09:43:02;;;;;;;6.47;3.22;;;;;;;20.94;84.69;100399.22;6271821;22;20010;-67
2023/09/18 09:45:35;;;;;;;9.93;2.92;;;;;;;21.14;86.51;100394.44;6272714;22;20023;-67
2023/09/18 09:48:04;;;;;;;6.20;3.05;;;;;;;21.18;84.36;100395.97;6271992;22;20349;-67
2023/09/18 09:50:30;;;;;;;7.43;2.88;;;;;;;21.32;83.55;100400.41;6272464;22;20090;-67
2023/09/18 09:52:56;;;;;;;10.18;2.90;;;;;;;21.25;84.01;100395.47;6272061;22;20014;-67
2023/09/18 09:55:28;;;;;;;4.55;2.55;;;;;;;21.13;81.57;100387.41;6247223;22;20003;-66
2023/09/18 09:57:59;;;;;;;8.00;2.70;;;;;;;21.19;83.38;100393.22;6271870;22;20008;-66
2023/09/18 10:00:45;;;;;;;4.40;2.15;;;;;;;21.36;83.12;100393.94;6272584;22;20568;-66
2023/09/18 10:03:13;;;;;;;4.25;2.45;;;;;;;21.31;81.98;100385.38;6272197;22;20402;-67
2023/09/18 10:05:41;;;;;;;4.50;2.38;;;;;;;21.21;81.47;100401.09;6274792;22;20655;-67
2023/09/18 10:08:11;;;;;;;4.78;2.33;;;;;;;21.08;81.42;100409.84;6274865;22;20015;-67
2023/09/18 10:10:45;;;;;;;4.60;2.17;;;;;;;21.09;81.92;100411.56;6274541;22;20015;-67
2023/09/18 10:13:27;;;;;;;5.57;2.17;;;;;;;21.10;83.63;100407.09;6273951;22;20448;-67
2023/09/18 10:15:53;;;;;;;6.93;2.40;;;;;;;20.99;82.55;100423.75;6274721;22;20007;-67
2023/09/18 10:19:08;;;;;;;6.00;2.70;;;;;;;21.00;84.28;100430.78;6248603;22;19996;-67
2023/09/18 10:21:33;;;;;;;8.20;2.38;;;;;;;20.73;85.11;100423.56;6264895;22;20007;-67
2023/09/18 10:24:04;;;;;;;6.10;2.40;;;;;;;20.70;84.77;100426.41;6274050;22;20389;-66
2023/09/18 10:26:38;;;;;;;7.75;2.67;;;;;;;20.64;83.08;100428.53;6276091;22;20007;-67
2023/09/18 10:29:05;;;;;;;6.32;2.80;;;;;;;20.66;85.92;100423.97;6273980;22;20310;-66
2023/09/18 10:31:34;;;;;;;5.40;2.35;;;;;;;20.62;85.59;100420.66;6273738;22;20082;-67
2023/09/18 10:34:02;;;;;;;4.60;2.28;;;;;;;20.62;83.13;100410.00;6273872;22;20101;-66
2023/09/18 10:36:30;;;;;;;3.55;2.40;;;;;;;20.69;83.89;100411.38;6249079;22;20017;-67
2023/09/18 10:38:58;;;;;;;5.53;2.60;;;;;;;21.05;83.36;100403.88;6248613;22;20043;-66
2023/09/18 10:41:25;;;;;;;4.22;2.50;;;;;;;21.47;82.98;100407.41;6248571;22;20384;-66
2023/09/18 10:43:53;;;;;;;6.72;2.33;;;;;;;21.81;82.18;100421.28;6272913;22;20007;-66
2023/09/18 10:46:20;;;;;;;4.20;2.00;;;;;;;21.86;80.01;100412.94;6275346;22;20012;-66
2023/09/18 10:48:46;;;;;;;5.32;2.50;;;;;;;22.19;79.88;100404.50;6222771;22;20024;-67
2023/09/18 10:51:13;;;;;;;5.05;2.20;;;;;;;22.07;79.24;100392.84;6247911;22;20014;-67
2023/09/18 10:53:40;;;;;;;7.20;2.67;;;;;;;22.13;81.18;100396.91;6223395;22;20008;-67
2023/09/18 10:56:06;;;;;;;3.38;2.08;;;;;;;22.29;79.61;100400.25;6274380;22;20008;-67
2023/09/18 10:58:35;;;;;;;5.38;2.35;;;;;;;21.94;78.23;100392.81;6275470;22;20448;-66
2023/09/18 11:01:04;;;;;;;5.03;2.72;;;;;;;21.77;79.66;100390.41;6274273;22;20016;-66
2023/09/18 11:03:32;;;;;;;4.15;2.50;;;;;;;21.67;80.70;100387.50;6273559;22;20012;-66
2023/09/18 11:06:11;;;;;;;4.53;2.38;;;;;;;21.60;81.04;100402.19;6273971;22;20073;-66
2023/09/18 11:08:48;;;;;;;4.28;2.42;;;;;;;21.46;82.68;100400.38;6273928;22;20003;-66
2023/09/18 11:11:14;;;;;;;5.35;2.63;;;;;;;21.35;80.61;100400.19;6249126;22;20011;-66
2023/09/18 11:13:45;;;;;;;6.88;2.40;;;;;;;21.46;83.87;100403.03;6273560;22;20007;-67
2023/09/18 11:16:26;;;;;;;7.57;3.25;;;;;;;21.53;80.79;100396.38;6273984;22;20457;-66
2023/09/18 11:18:58;;;;;;;5.55;2.83;;;;;;;21.48;78.19;100400.25;6273447;22;20453;-67
2023/09/18 11:21:25;;;;;;;5.47;2.85;;;;;;;21.57;79.33;100403.22;6249897;22;20011;-66
2023/09/18 11:24:05;;;;;;;8.13;3.15;;;;;;;21.68;79.97;100402.53;6248035;22;20003;-66
2023/09/18 11:26:36;;;;;;;4.55;2.58;;;;;;;21.94;78.24;100415.97;6274256;22;20011;-66
2023/09/18 11:29:05;;;;;;;4.90;2.50;;;;;;;21.92;78.22;100420.53;6273423;22;20376;-66
2023/09/18 11:31:50;;;;;;;6.45;2.72;;;;;;;22.09;79.01;100414.09;6273937;22;19996;-66
2023/09/18 11:34:34;;;;;;;6.68;2.70;;;;;;;22.17;77.88;100405.56;6248034;22;20007;-66
2023/09/18 11:37:03;;;;;;;5.05;2.47;;;;;;;21.91;75.34;100417.03;6273662;22;20004;-67
2023/09/18 11:39:38;;;;;;;6.80;2.80;;;;;;;21.96;75.23;100422.91;6248889;22;20023;-66
2023/09/18 11:42:12;;;;;;;7.88;2.95;;;;;;;22.20;76.02;100408.88;6273110;22;20003;-66
2023/09/18 11:44:43;;;;;;;4.32;2.40;;;;;;;22.09;72.63;100406.94;6273923;22;20091;-67
2023/09/18 11:47:21;;;;;;;5.10;2.40;;;;;;;22.15;75.57;100395.88;6249021;22;20411;-66
2023/09/18 11:49:56;;;;;;;5.25;2.72;;;;;;;22.52;77.68;100402.34;6273798;22;20030;-67
2023/09/18 11:52:24;;;;;;;4.43;2.75;;;;;;;22.55;73.28;100396.78;6273728;22;20388;-67
2023/09/18 11:54:50;;;;;;;4.68;2.58;;;;;;;22.51;71.16;100382.78;6248460;22;20008;-67
2023/09/18 11:57:19;;;;;;;5.03;2.45;;;;;;;22.53;67.14;100401.38;6247730;22;20042;-67
2023/09/18 11:59:46;;;;;;;5.78;2.42;;;;;;;22.68;69.63;100389.63;6273944;22;20004;-67
2023/09/18 12:02:27;;;;;;;6.20;2.35;;;;;;;22.79;69.00;100395.06;6247539;22;20008;-66
2023/09/18 12:04:54;;;;;;;5.15;2.00;;;;;;;22.84;68.42;100400.09;6273277;22;20118;-67